METAR Data
IDs: Format: Raw Decoded Include TAF

Data at: 1456 UTC 10 Aug 2022

KEED 101356Z AUTO 00000KT 10SM FEW100 30/22 A2997 RMK AO2 SLP114 T03000217 $
KEED 101256Z AUTO 28003KT 10SM OVC110 30/21 A2995 RMK AO2 SLP107 T03000206 $
KEED 101156Z AUTO 00000KT 10SM OVC100 30/21 A2994 RMK AO2 SLP103 70002 T03000211 10322 20294 53005 $
KEED 101056Z AUTO 00000KT 10SM FEW095 30/21 A2993 RMK AO2 SLP098 T03000211 $
KEED 100956Z AUTO 00000KT 10SM CLR 30/21 A2992 RMK AO2 SLP097 T03000211 $
KEED 100856Z AUTO 00000KT 10SM CLR 31/21 A2992 RMK AO2 SLP097 T03060206 50002 $
KEED 100756Z AUTO 00000KT 10SM CLR 31/21 A2993 RMK AO2 SLP098 T03110206 404060306 $
KEED 100656Z AUTO 09003KT 10SM FEW120 31/21 A2993 RMK AO2 SLP099 T03110211
KEED 100556Z AUTO 00000KT 10SM CLR 32/21 A2992 RMK AO2 SLP095 60000 T03170206 10372 20317 51012
KEED 100456Z AUTO 00000KT 10SM CLR 32/21 A2991 RMK AO2 SLP094 T03170206
KEED 100356Z AUTO 33006KT 10SM CLR 32/20 A2989 RMK AO2 SLP088 T03170200
KEED 100256Z AUTO 01007KT 10SM CLR 32/21 A2988 RMK AO2 SLP085 60000 T03220206 53015
KEED 100156Z AUTO 12003KT 10SM CLR 33/19 A2987 RMK AO2 RAE07 SLP079 P0000 T03280194
KEED 100056Z AUTO 12008KT 10SM -RA FEW070 FEW090 SCT120 33/21 A2985 RMK AO2 RAB52 SLP073 P0000 T03280206
KEED 100039Z AUTO 08009KT 10SM SCT090 33/19 A2986 RMK AO2 T03280189
KEED 092356Z AUTO 11003KT 10SM VCTS FEW090 37/18 A2984 RMK AO2 LTG DSNT N-E RAE26 SLP068 P0002 60002 T03670183 10406 20344 56011
KEED 092315Z AUTO 26010G17KT 7SM RA FEW033 SCT055 BKN080 37/21 A2984 RMK AO2 LTG DSNT NE-SE P0002 T03670211
KEED 092256Z AUTO 26019G24KT 10SM VCTS -RA FEW100 39/18 A2984 RMK AO2 PK WND 21031/2217 LTG DSNT E RAB56 SLP067 P0000 T03890183
KEED 092243Z AUTO 22017G25KT 10SM VCTS FEW100 40/17 A2984 RMK AO2 PK WND 21031/2217 T04000167
KEED 092156Z AUTO 23007G17KT 10SM FEW085 39/17 A2983 RMK AO2 LTG DSNT SW AND NW SLP064 T03890167
KEED 092056Z AUTO 19007KT 10SM FEW080 39/17 A2987 RMK AO2 SLP077 T03940167 58022
KEED 091956Z AUTO 18010KT 10SM SCT080 39/17 A2990 RMK AO2 LTG DSNT S SLP086 T03890167
KEED 091856Z AUTO 25007G14KT 10SM CLR 38/18 A2993 RMK AO2 LTG DSNT SW SLP095 T03830178
KEED 091756Z AUTO VRB06G16KT 10SM CLR 37/18 A2994 RMK AO2 SLP100 T03670178 10367 20317 50002
KEED 091656Z AUTO 23009KT 10SM CLR 35/18 A2994 RMK AO2 SLP101 T03500183
KEED 091556Z AUTO 00000KT 10SM CLR 34/17 A2994 RMK AO2 SLP101 T03440172 $
KEED 091456Z AUTO 00000KT 10SM CLR 33/17 A2993 RMK AO2 SLP099 T03280172 $
KEED 091356Z AUTO 12004KT 10SM BKN110 32/18 A2993 RMK AO2 SLP098 T03170178 $
KEED 091256Z AUTO 00000KT 10SM CLR 32/16 A2990 RMK AO2 SLP089 T03170161
KEED 091156Z AUTO 24006KT 10SM CLR 32/16 A2989 RMK AO2 SLP083 T03220161 10350 20317 53007
KEED 091056Z AUTO 18004KT 10SM CLR 32/16 A2988 RMK AO2 SLP080 T03170156
KEED 090956Z AUTO 23005KT 10SM CLR 33/14 A2986 RMK AO2 SLP075 T03330144
KEED 090856Z AUTO 19003KT 10SM CLR 33/15 A2987 RMK AO2 SLP075 T03330150 58000
KEED 090756Z AUTO 00000KT 10SM CLR 34/15 A2987 RMK AO2 SLP077 T03390150 404000339
KEED 090656Z AUTO 22013KT 10SM CLR 34/16 A2987 RMK AO2 SLP078 T03440156
KEED 090556Z AUTO 23011KT 10SM CLR 35/16 A2987 RMK AO2 SLP076 T03500156 10400 20350 50012
KEED 090456Z AUTO 24011KT 10SM CLR 36/15 A2987 RMK AO2 SLP078 T03560150
KEED 090356Z AUTO 23011KT 10SM CLR 37/16 A2985 RMK AO2 SLP072 T03670156